Time,TemperatureF,DewpointF,PressureIn,WindDirection,WindDirectionDegrees,WindSpeedMPH,WindSpeedGustMPH,Humidity,HourlyPrecipIn,Conditions,Clouds,dailyrainin,SolarRadiationWatts/m^2,SoftwareType,DateUTC
2013-05-21 00:01:00,61.0,35.0,-100.00,SW,231,1.0,4.0,38,0.00,,,0.00,0.000000,,2013-05-21 07:01:00,
2013-05-21 00:22:00,60.0,34.0,-100.00,SSW,211,3.0,6.0,38,0.00,,,0.00,0.000000,,2013-05-21 07:22:00,
2013-05-21 00:32:00,60.0,34.0,-100.00,SSW,211,3.0,6.0,38,0.00,,,0.00,0.000000,,2013-05-21 07:32:00,
2013-05-21 00:42:00,60.0,34.0,-100.00,SSW,211,3.0,6.0,38,0.00,,,0.00,0.000000,,2013-05-21 07:42:00,
2013-05-21 00:52:00,60.0,34.0,-100.00,SSW,211,3.0,6.0,38,0.00,,,0.00,0.000000,,2013-05-21 07:52:00,
2013-05-21 01:01:00,60.0,34.0,-100.00,SSW,211,3.0,6.0,38,0.00,,,0.00,0.000000,,2013-05-21 08:01:00,
2013-05-21 02:33:00,59.0,33.0,-100.00,WSW,237,4.0,9.0,38,-99.99,,,0.00,0.000000,,2013-05-21 09:33:00,
2013-05-21 02:42:00,59.0,33.0,-100.00,WSW,237,4.0,9.0,38,-99.99,,,0.00,0.000000,,2013-05-21 09:42:00,
2013-05-21 02:53:00,59.0,33.0,-100.00,WSW,237,4.0,9.0,38,-99.99,,,0.00,0.000000,,2013-05-21 09:53:00,
2013-05-21 03:02:00,59.0,33.0,-100.00,WSW,237,4.0,9.0,38,-99.99,,,0.00,0.000000,,2013-05-21 10:02:00,
2013-05-21 03:22:00,58.0,34.0,-100.00,SSW,212,3.0,7.0,40,0.00,,,0.00,0.000000,,2013-05-21 10:22:00,
2013-05-21 03:33:00,58.0,34.0,-100.00,SSW,212,3.0,7.0,40,0.00,,,0.00,0.000000,,2013-05-21 10:33:00,
2013-05-21 03:42:00,58.0,34.0,-100.00,SSW,212,3.0,7.0,40,0.00,,,0.00,0.000000,,2013-05-21 10:42:00,
2013-05-21 03:52:00,58.0,34.0,-100.00,SSW,212,3.0,7.0,40,0.00,,,0.00,0.000000,,2013-05-21 10:52:00,
2013-05-21 04:02:00,58.0,34.0,-100.00,SSW,212,3.0,7.0,40,0.00,,,0.00,0.000000,,2013-05-21 11:02:00,
2013-05-21 04:22:00,58.0,34.0,-100.00,WSW,241,4.0,7.0,40,0.00,,,0.00,0.000000,,2013-05-21 11:22:00,
2013-05-21 04:32:00,58.0,34.0,-100.00,WSW,241,4.0,7.0,40,0.00,,,0.00,0.000000,,2013-05-21 11:32:00,
2013-05-21 04:42:00,58.0,34.0,-100.00,WSW,241,4.0,7.0,40,0.00,,,0.00,0.000000,,2013-05-21 11:42:00,
2013-05-21 04:52:00,58.0,34.0,-100.00,WSW,241,4.0,7.0,40,0.00,,,0.00,0.000000,,2013-05-21 11:52:00,
2013-05-21 05:01:00,58.0,34.0,-100.00,WSW,241,4.0,7.0,40,0.00,,,0.00,0.000000,,2013-05-21 12:01:00,
2013-05-21 05:32:00,54.0,34.0,-100.00,East,83,2.0,7.0,47,0.00,,,0.00,0.000000,,2013-05-21 12:32:00,
2013-05-21 05:42:00,54.0,34.0,-100.00,East,83,2.0,7.0,47,0.00,,,0.00,0.000000,,2013-05-21 12:42:00,
2013-05-21 05:52:00,54.0,34.0,-100.00,East,83,2.0,7.0,47,0.00,,,0.00,0.000000,,2013-05-21 12:52:00,
2013-05-21 06:01:00,54.0,34.0,-100.00,East,83,2.0,7.0,47,0.00,,,0.00,0.000000,,2013-05-21 13:01:00,
2013-05-21 06:22:00,48.0,40.0,-100.00,NE,46,1.0,5.0,73,0.00,,,-99.99,1.000000,,2013-05-21 13:22:00,
2013-05-21 06:32:00,48.0,40.0,-100.00,NE,46,1.0,5.0,73,0.00,,,-99.99,1.000000,,2013-05-21 13:32:00,
2013-05-21 06:42:00,48.0,40.0,-100.00,NE,46,1.0,5.0,73,0.00,,,-99.99,1.000000,,2013-05-21 13:42:00,
2013-05-21 06:52:00,48.0,40.0,-100.00,NE,46,1.0,5.0,73,0.00,,,-99.99,1.000000,,2013-05-21 13:52:00,
2013-05-21 07:01:00,48.0,40.0,-100.00,NE,46,1.0,5.0,73,0.00,,,-99.99,1.000000,,2013-05-21 14:01:00,
2013-05-21 07:32:00,48.0,44.0,-100.00,ENE,63,2.0,5.0,87,0.00,,,0.00,26.000000,,2013-05-21 14:32:00,
2013-05-21 07:52:00,48.0,44.0,-100.00,ENE,63,2.0,5.0,87,0.00,,,0.00,26.000000,,2013-05-21 14:52:00,
2013-05-21 08:01:00,48.0,44.0,-100.00,ENE,63,2.0,5.0,87,0.00,,,0.00,26.000000,,2013-05-21 15:01:00,
2013-05-21 09:32:00,66.0,42.0,-100.00,ENE,58,2.0,5.0,42,-99.99,,,0.00,385.000000,,2013-05-21 16:32:00,
2013-05-21 09:42:00,66.0,42.0,-100.00,ENE,58,2.0,5.0,42,-99.99,,,0.00,385.000000,,2013-05-21 16:42:00,
2013-05-21 09:52:00,66.0,42.0,-100.00,ENE,58,2.0,5.0,42,-99.99,,,0.00,385.000000,,2013-05-21 16:52:00,
2013-05-21 10:02:00,66.0,42.0,-100.00,ENE,58,2.0,5.0,42,-99.99,,,0.00,385.000000,,2013-05-21 17:02:00,
2013-05-21 10:33:00,75.0,42.0,-100.00,NW,309,2.0,6.0,31,0.00,,,0.00,580.000000,,2013-05-21 17:33:00,
2013-05-21 10:44:00,75.0,42.0,-100.00,NW,309,2.0,6.0,31,0.00,,,0.00,580.000000,,2013-05-21 17:44:00,
2013-05-21 10:52:00,75.0,42.0,-100.00,NW,309,2.0,6.0,31,0.00,,,0.00,580.000000,,2013-05-21 17:52:00,
2013-05-21 11:01:00,75.0,42.0,-100.00,NW,309,2.0,6.0,31,0.00,,,0.00,580.000000,,2013-05-21 18:01:00,
2013-05-21 11:32:00,80.0,45.0,-100.00,East,84,7.0,12.0,29,-99.99,,,-99.99,761.000000,,2013-05-21 18:32:00,
2013-05-21 11:42:00,80.0,45.0,-100.00,East,84,7.0,12.0,29,-99.99,,,-99.99,761.000000,,2013-05-21 18:42:00,
2013-05-21 12:22:00,83.0,46.0,-100.00,ENE,73,8.0,17.0,27,-99.99,,,0.00,918.000000,,2013-05-21 19:22:00,
2013-05-21 12:32:00,83.0,46.0,-100.00,ENE,73,8.0,17.0,27,-99.99,,,0.00,918.000000,,2013-05-21 19:32:00,
2013-05-21 13:32:00,83.0,47.0,-100.00,ENE,73,8.0,21.0,29,-99.99,,,0.00,971.000000,,2013-05-21 20:32:00,
2013-05-21 14:33:00,81.0,45.0,-100.00,East,89,8.0,16.0,28,-99.99,,,-99.99,972.000000,,2013-05-21 21:33:00,
2013-05-21 14:43:00,81.0,45.0,-100.00,East,89,8.0,16.0,28,-99.99,,,-99.99,972.000000,,2013-05-21 21:43:00,
2013-05-21 14:54:00,81.0,45.0,-100.00,East,89,8.0,16.0,28,-99.99,,,-99.99,972.000000,,2013-05-21 21:54:00,
2013-05-21 15:02:00,81.0,45.0,-100.00,East,89,8.0,16.0,28,-99.99,,,-99.99,972.000000,,2013-05-21 22:02:00,
2013-05-21 15:23:00,81.0,39.0,-100.00,East,95,10.0,19.0,22,0.00,,,0.00,925.000000,,2013-05-21 22:23:00,
2013-05-21 15:33:00,81.0,39.0,-100.00,East,95,10.0,19.0,22,0.00,,,0.00,925.000000,,2013-05-21 22:33:00,
2013-05-21 15:42:00,81.0,39.0,-100.00,East,95,10.0,19.0,22,0.00,,,0.00,925.000000,,2013-05-21 22:42:00,
2013-05-21 16:22:00,80.0,30.0,-100.00,East,90,9.0,19.0,16,0.00,,,0.00,829.000000,,2013-05-21 23:22:00,
2013-05-21 16:32:00,80.0,30.0,-100.00,East,90,9.0,19.0,16,0.00,,,0.00,829.000000,,2013-05-21 23:32:00,
2013-05-21 17:32:00,76.0,34.0,-100.00,East,91,9.0,18.0,22,-99.99,,,0.00,683.000000,,2013-05-22 00:32:00,
2013-05-21 17:42:00,76.0,34.0,-100.00,East,91,9.0,18.0,22,-99.99,,,0.00,683.000000,,2013-05-22 00:42:00,
2013-05-21 17:52:00,76.0,34.0,-100.00,East,91,9.0,18.0,22,-99.99,,,0.00,683.000000,,2013-05-22 00:52:00,
2013-05-21 18:01:00,76.0,34.0,-100.00,East,91,9.0,18.0,22,-99.99,,,0.00,683.000000,,2013-05-22 01:01:00,
2013-05-21 18:22:00,69.0,36.0,-100.00,East,92,9.0,26.0,30,0.00,,,0.00,485.000000,,2013-05-22 01:22:00,
2013-05-21 18:32:00,69.0,36.0,-100.00,East,92,9.0,26.0,30,0.00,,,0.00,485.000000,,2013-05-22 01:32:00,
2013-05-21 18:42:00,69.0,36.0,-100.00,East,92,9.0,26.0,30,0.00,,,0.00,485.000000,,2013-05-22 01:42:00,
2013-05-21 18:52:00,69.0,36.0,-100.00,East,92,9.0,26.0,30,0.00,,,0.00,485.000000,,2013-05-22 01:52:00,
2013-05-21 19:01:00,69.0,36.0,-100.00,East,92,9.0,26.0,30,0.00,,,0.00,485.000000,,2013-05-22 02:01:00,
2013-05-21 19:22:00,64.0,32.0,-100.00,East,97,8.0,19.0,30,0.00,,,0.00,275.000000,,2013-05-22 02:22:00,
2013-05-21 19:32:00,64.0,32.0,-100.00,East,97,8.0,19.0,30,0.00,,,0.00,275.000000,,2013-05-22 02:32:00,
2013-05-21 19:42:00,64.0,32.0,-100.00,East,97,8.0,19.0,30,0.00,,,0.00,275.000000,,2013-05-22 02:42:00,
2013-05-21 19:52:00,64.0,32.0,-100.00,East,97,8.0,19.0,30,0.00,,,0.00,275.000000,,2013-05-22 02:52:00,
2013-05-21 20:01:00,64.0,32.0,-100.00,East,97,8.0,19.0,30,0.00,,,0.00,275.000000,,2013-05-22 03:01:00,
2013-05-21 20:33:00,57.0,33.0,-100.00,ENE,68,3.0,13.0,40,0.00,,,0.00,22.000000,,2013-05-22 03:33:00,
2013-05-21 20:43:00,57.0,33.0,-100.00,ENE,68,3.0,13.0,40,0.00,,,0.00,22.000000,,2013-05-22 03:43:00,
2013-05-21 20:53:00,57.0,33.0,-100.00,ENE,68,3.0,13.0,40,0.00,,,0.00,22.000000,,2013-05-22 03:53:00,
2013-05-21 21:03:00,57.0,33.0,-100.00,ENE,68,3.0,13.0,40,0.00,,,0.00,22.000000,,2013-05-22 04:03:00,
2013-05-21 21:23:00,54.0,36.0,-100.00,ENE,60,3.0,10.0,51,0.00,,,0.00,1.000000,,2013-05-22 04:23:00,
2013-05-21 21:33:00,54.0,36.0,-100.00,ENE,60,3.0,10.0,51,0.00,,,0.00,1.000000,,2013-05-22 04:33:00,
2013-05-21 21:43:00,54.0,36.0,-100.00,ENE,60,3.0,10.0,51,0.00,,,0.00,1.000000,,2013-05-22 04:43:00,
2013-05-21 21:53:00,54.0,36.0,-100.00,ENE,60,3.0,10.0,51,0.00,,,0.00,1.000000,,2013-05-22 04:53:00,
2013-05-21 22:02:00,54.0,36.0,-100.00,ENE,60,3.0,10.0,51,0.00,,,0.00,1.000000,,2013-05-22 05:02:00,
2013-05-21 22:22:00,50.0,36.0,-100.00,SSW,204,0.0,6.0,59,0.00,,,0.00,0.000000,,2013-05-22 05:22:00,
2013-05-21 22:32:00,50.0,36.0,-100.00,SSW,204,0.0,6.0,59,0.00,,,0.00,0.000000,,2013-05-22 05:32:00,
2013-05-21 22:42:00,50.0,36.0,-100.00,SSW,204,0.0,6.0,59,0.00,,,0.00,0.000000,,2013-05-22 05:42:00,
2013-05-21 22:52:00,50.0,36.0,-100.00,SSW,204,0.0,6.0,59,0.00,,,0.00,0.000000,,2013-05-22 05:52:00,
2013-05-21 23:01:00,50.0,36.0,-100.00,SSW,204,0.0,6.0,59,0.00,,,0.00,0.000000,,2013-05-22 06:01:00,
2013-05-21 23:32:00,46.0,36.0,-100.00,SSW,193,0.0,0.0,67,0.00,,,-99.99,0.000000,,2013-05-22 06:32:00,
2013-05-21 23:42:00,46.0,36.0,-100.00,SSW,193,0.0,0.0,67,0.00,,,-99.99,0.000000,,2013-05-22 06:42:00,
2013-05-21 23:52:00,46.0,36.0,-100.00,SSW,193,0.0,0.0,67,0.00,,,-99.99,0.000000,,2013-05-22 06:52:00,